createdAt,value
2019-01-17T00:00:29.735Z,5.10
2019-01-17T00:03:09.311Z,5.10
2019-01-17T00:05:39.381Z,5.10
2019-01-17T00:08:09.396Z,5.20
2019-01-17T00:10:56.170Z,5.20
2019-01-17T00:13:27.985Z,5.20
2019-01-17T00:16:24.917Z,5.10
2019-01-17T00:19:05.534Z,5.10
2019-01-17T00:21:39.973Z,5.10
2019-01-17T00:24:26.519Z,5.10
2019-01-17T00:27:00.999Z,5.10
2019-01-17T00:29:31.019Z,5.10
2019-01-17T00:32:03.921Z,5.10
2019-01-17T00:34:51.664Z,5.10
2019-01-17T00:37:46.894Z,5.10
2019-01-17T00:40:24.544Z,5.20
2019-01-17T00:43:15.910Z,5.20
2019-01-17T00:46:00.998Z,5.20
2019-01-17T00:48:31.031Z,5.30
2019-01-17T00:51:03.910Z,5.20
2019-01-17T00:53:36.936Z,5.20
2019-01-17T00:56:12.837Z,5.20
2019-01-17T00:58:57.390Z,5.20
2019-01-17T01:01:41.941Z,5.20
2019-01-17T01:04:31.468Z,5.20
2019-01-17T01:07:19.269Z,5.20
2019-01-17T01:10:01.525Z,5.10
2019-01-17T01:12:40.429Z,5.10
2019-01-17T01:15:22.078Z,5.10
2019-01-17T01:18:01.007Z,5.10
2019-01-17T01:20:49.217Z,5.10
2019-01-17T01:23:38.579Z,5.00
2019-01-17T01:26:26.704Z,5.00
2019-01-17T01:29:13.705Z,5.00
2019-01-17T01:31:43.725Z,5.00
2019-01-17T01:34:22.422Z,5.00
2019-01-17T01:36:55.373Z,4.90
2019-01-17T01:39:26.380Z,5.00
2019-01-17T01:42:08.377Z,4.90
2019-01-17T01:44:57.437Z,4.90
2019-01-17T01:47:44.169Z,5.00
2019-01-17T01:50:16.901Z,5.00
2019-01-17T01:53:04.383Z,5.00
2019-01-17T01:55:34.542Z,5.00
2019-01-17T01:58:17.874Z,5.00
2019-01-17T02:00:49.209Z,5.00
2019-01-17T02:03:22.869Z,5.00
2019-01-17T02:05:51.493Z,5.00
2019-01-17T02:08:19.897Z,4.90
2019-01-17T02:10:52.672Z,4.90
2019-01-17T02:13:26.473Z,4.90
2019-01-17T02:16:09.123Z,4.90
2019-01-17T02:18:40.693Z,4.90
2019-01-17T02:21:09.073Z,4.90
2019-01-17T02:23:42.918Z,4.80
2019-01-17T02:26:19.952Z,4.90
2019-01-17T02:28:48.399Z,4.90
2019-01-17T02:31:16.798Z,4.90
2019-01-17T02:33:50.782Z,5.00
2019-01-17T02:36:23.396Z,5.00
2019-01-17T02:38:52.031Z,5.00
2019-01-17T02:41:23.131Z,5.10
2019-01-17T02:43:54.769Z,5.10
2019-01-17T02:46:27.815Z,5.10
2019-01-17T02:49:02.177Z,5.00
2019-01-17T02:51:30.691Z,5.00
2019-01-17T02:54:04.484Z,5.00
2019-01-17T02:56:38.498Z,5.00
2019-01-17T02:59:12.775Z,5.00
2019-01-17T03:01:41.160Z,5.00
2019-01-17T03:04:15.075Z,4.90
2019-01-17T03:06:46.156Z,5.00
2019-01-17T03:09:16.986Z,5.00
2019-01-17T03:11:45.451Z,4.90
2019-01-17T03:14:17.083Z,4.90
2019-01-17T03:16:45.639Z,5.00
2019-01-17T03:19:18.625Z,5.00
2019-01-17T03:21:48.714Z,5.00
2019-01-17T03:24:24.566Z,5.00
2019-01-17T03:26:55.901Z,5.00
2019-01-17T03:29:24.276Z,5.00
2019-01-17T03:31:52.679Z,5.00
2019-01-17T03:34:24.092Z,5.10
2019-01-17T03:36:52.526Z,5.10
2019-01-17T03:39:23.908Z,5.10
2019-01-17T03:41:55.810Z,5.10
2019-01-17T03:44:24.386Z,5.10
2019-01-17T03:46:54.421Z,5.10
2019-01-17T03:49:23.042Z,5.00
2019-01-17T03:51:57.575Z,5.00
2019-01-17T03:54:25.951Z,5.00
2019-01-17T03:57:03.406Z,5.00
2019-01-17T03:59:37.817Z,5.00
2019-01-17T04:02:09.017Z,5.00
2019-01-17T04:04:43.064Z,5.00
2019-01-17T04:07:17.182Z,5.00
2019-01-17T04:09:51.182Z,4.90
2019-01-17T04:12:22.610Z,4.90
2019-01-17T04:14:50.989Z,5.00
2019-01-17T04:17:25.066Z,5.00
2019-01-17T04:19:53.513Z,5.00
2019-01-17T04:22:26.992Z,5.00
2019-01-17T04:24:57.428Z,5.00
2019-01-17T04:27:32.129Z,5.00
2019-01-17T04:30:05.037Z,4.90
2019-01-17T04:32:40.549Z,4.90
2019-01-17T04:35:10.562Z,4.80
2019-01-17T04:37:38.996Z,4.80
2019-01-17T04:40:13.227Z,4.80
2019-01-17T04:42:47.705Z,4.70
2019-01-17T04:45:24.910Z,4.70
2019-01-17T04:47:54.801Z,4.70
2019-01-17T04:50:29.230Z,4.60
2019-01-17T04:53:00.300Z,4.60
2019-01-17T04:55:37.662Z,4.60
2019-01-17T04:58:12.171Z,4.60
2019-01-17T05:00:42.208Z,4.60
2019-01-17T05:03:12.225Z,4.60
2019-01-17T05:05:43.582Z,4.60
2019-01-17T05:08:34.462Z,4.60
2019-01-17T05:11:03.873Z,4.60
2019-01-17T05:13:32.253Z,4.50
2019-01-17T05:16:00.733Z,4.60
2019-01-17T05:18:37.925Z,4.60
2019-01-17T05:21:09.000Z,4.60
2019-01-17T05:23:55.730Z,4.50
2019-01-17T05:26:33.538Z,4.50
2019-01-17T05:29:04.980Z,4.50
2019-01-17T05:31:36.536Z,4.50
2019-01-17T05:34:07.535Z,4.50
2019-01-17T05:36:38.867Z,4.50
2019-01-17T05:39:08.321Z,4.60
2019-01-17T05:41:36.707Z,4.50
2019-01-17T05:44:05.086Z,4.50
2019-01-17T05:46:33.536Z,4.60
2019-01-17T05:49:12.450Z,4.60
2019-01-17T05:51:40.829Z,4.60
2019-01-17T05:54:10.860Z,4.50
2019-01-17T05:56:42.384Z,4.50
2019-01-17T05:59:13.746Z,4.60
2019-01-17T06:01:42.125Z,4.60
2019-01-17T06:04:16.089Z,4.60
2019-01-17T06:06:44.474Z,4.60
2019-01-17T06:09:12.860Z,4.60
2019-01-17T06:11:41.253Z,4.60
2019-01-17T06:14:09.639Z,4.60
2019-01-17T06:16:39.657Z,4.60
2019-01-17T06:19:10.816Z,4.60
2019-01-17T06:21:41.918Z,4.60
2019-01-17T06:24:11.681Z,4.60
2019-01-17T06:26:45.875Z,4.50
2019-01-17T06:29:23.621Z,4.60
2019-01-17T06:31:55.193Z,4.50
2019-01-17T06:34:25.202Z,4.60
2019-01-17T06:37:00.958Z,4.50
2019-01-17T06:39:29.341Z,4.50
2019-01-17T06:42:09.522Z,4.60
2019-01-17T06:44:38.208Z,4.50
2019-01-17T06:47:06.860Z,4.50
2019-01-17T06:49:35.246Z,4.50
2019-01-17T06:52:05.374Z,4.50
2019-01-17T06:54:35.376Z,4.50
2019-01-17T06:57:10.305Z,4.50
2019-01-17T06:59:49.293Z,4.50
2019-01-17T07:02:17.681Z,4.50
2019-01-17T07:04:46.080Z,4.50
2019-01-17T07:07:14.461Z,4.40
2019-01-17T07:09:44.164Z,4.40
2019-01-17T07:12:13.633Z,4.40
2019-01-17T07:14:45.203Z,4.40
2019-01-17T07:17:13.594Z,4.40
2019-01-17T07:19:45.243Z,4.40
2019-01-17T07:22:16.016Z,4.30
2019-01-17T07:24:52.646Z,4.30
2019-01-17T07:27:26.759Z,4.30
2019-01-17T07:29:58.702Z,4.30
2019-01-17T07:32:30.024Z,4.30
2019-01-17T07:34:58.409Z,4.30
2019-01-17T07:37:32.956Z,4.20
2019-01-17T07:40:01.349Z,4.20
2019-01-17T07:42:39.688Z,4.30
2019-01-17T07:45:11.228Z,4.30
2019-01-17T07:47:42.645Z,4.30
2019-01-17T07:50:11.665Z,4.30
2019-01-17T07:52:40.215Z,4.20
2019-01-17T07:55:10.120Z,4.30
2019-01-17T07:57:38.675Z,4.20
2019-01-17T08:00:19.074Z,4.20
2019-01-17T08:02:47.457Z,4.30
2019-01-17T08:05:28.326Z,4.30
2019-01-17T08:07:56.706Z,4.30
2019-01-17T08:10:30.012Z,4.30
2019-01-17T08:12:58.451Z,4.40
2019-01-17T08:15:26.869Z,4.40
2019-01-17T08:17:57.960Z,4.40
2019-01-17T08:20:27.582Z,4.50
2019-01-17T08:22:58.897Z,4.50
2019-01-17T08:25:30.029Z,4.60
2019-01-17T08:28:00.945Z,4.60
2019-01-17T08:30:29.423Z,4.70
2019-01-17T08:32:57.797Z,4.70
2019-01-17T08:35:28.965Z,4.80
2019-01-17T08:37:57.361Z,4.90
2019-01-17T08:40:28.680Z,4.90
2019-01-17T08:42:57.073Z,4.90
2019-01-17T08:45:25.724Z,4.90
2019-01-17T08:47:54.416Z,4.90
2019-01-17T08:50:27.984Z,4.80
2019-01-17T08:52:57.064Z,4.80
2019-01-17T08:55:25.436Z,4.90
2019-01-17T08:57:53.846Z,4.90
2019-01-17T09:00:27.748Z,4.90
2019-01-17T09:02:56.120Z,5.00
2019-01-17T09:05:24.513Z,5.00
2019-01-17T09:07:59.671Z,5.10
2019-01-17T09:10:31.624Z,5.10
2019-01-17T09:13:00.018Z,5.20
2019-01-17T09:15:33.557Z,5.20
2019-01-17T09:18:04.859Z,5.30
2019-01-17T09:20:33.252Z,5.40
2019-01-17T09:23:09.528Z,5.50
2019-01-17T09:25:41.233Z,5.70
2019-01-17T09:28:10.121Z,5.90
2019-01-17T09:30:43.540Z,6.10
2019-01-17T09:33:16.809Z,6.20
2019-01-17T09:35:46.852Z,6.40
2019-01-17T09:38:21.374Z,6.50
2019-01-17T09:40:49.753Z,6.70
2019-01-17T09:43:18.133Z,6.90
2019-01-17T09:45:46.597Z,7.20
2019-01-17T09:48:15.046Z,7.30
2019-01-17T09:50:43.675Z,7.40
2019-01-17T09:53:12.061Z,7.50
2019-01-17T09:55:44.518Z,7.40
2019-01-17T09:58:15.625Z,7.40
2019-01-17T10:00:44.249Z,7.80
2019-01-17T10:03:15.416Z,8.50
2019-01-17T10:05:49.555Z,9.80
2019-01-17T10:08:19.474Z,11.20
2019-01-17T10:10:54.007Z,11.50
2019-01-17T10:13:22.477Z,11.50
2019-01-17T10:15:54.270Z,11.50
2019-01-17T10:18:47.450Z,11.50
2019-01-17T10:21:24.813Z,11.00
2019-01-17T10:23:59.136Z,10.70
2019-01-17T10:26:39.644Z,10.60
2019-01-17T10:29:44.532Z,10.40
2019-01-17T10:32:47.896Z,10.10
2019-01-17T10:35:28.442Z,9.50
2019-01-17T10:38:10.349Z,8.90
2019-01-17T10:41:03.794Z,9.30
2019-01-17T10:43:59.290Z,9.80
2019-01-17T10:46:48.893Z,9.90
2019-01-17T10:49:36.862Z,10.00
2019-01-17T10:52:44.618Z,10.40
2019-01-17T10:55:38.765Z,11.00
2019-01-17T10:58:29.641Z,11.70
2019-01-17T11:01:04.447Z,12.30
2019-01-17T11:03:56.894Z,12.10
2019-01-17T11:06:33.884Z,11.90
2019-01-17T11:09:08.277Z,12.00
2019-01-17T11:11:56.976Z,11.50
2019-01-17T11:14:49.515Z,11.80
2019-01-17T11:17:42.645Z,11.90
2019-01-17T11:20:29.312Z,11.10
2019-01-17T11:23:18.512Z,9.80
2019-01-17T11:25:50.223Z,9.00
2019-01-17T11:28:30.446Z,9.90
2019-01-17T11:31:13.421Z,11.10
2019-01-17T11:33:53.884Z,11.20
2019-01-17T11:36:46.662Z,10.50
2019-01-17T11:39:21.014Z,9.90
2019-01-17T11:41:58.241Z,9.70
2019-01-17T11:44:49.609Z,10.40
2019-01-17T11:47:22.766Z,11.00
2019-01-17T11:50:07.505Z,11.30
2019-01-17T11:53:10.529Z,11.70
2019-01-17T11:56:03.341Z,11.30
2019-01-17T11:58:36.422Z,10.50
2019-01-17T12:01:41.421Z,9.50
2019-01-17T12:04:19.245Z,9.00
2019-01-17T12:06:47.631Z,8.70
2019-01-17T12:09:16.022Z,8.50
2019-01-17T12:11:44.399Z,8.30
2019-01-17T12:14:19.137Z,8.10
2019-01-17T12:16:57.570Z,8.00
2019-01-17T12:19:26.825Z,7.90
2019-01-17T12:21:56.145Z,7.80
2019-01-17T12:24:28.074Z,7.80
2019-01-17T12:27:01.842Z,7.80
2019-01-17T12:29:38.929Z,7.70
2019-01-17T12:32:07.297Z,7.80
2019-01-17T12:34:44.622Z,7.90
2019-01-17T12:37:21.660Z,8.40
2019-01-17T12:39:51.933Z,9.10
2019-01-17T12:42:20.321Z,9.90
2019-01-17T12:44:51.478Z,10.20
2019-01-17T12:47:25.413Z,10.20
2019-01-17T12:49:54.043Z,10.20
2019-01-17T12:52:30.549Z,10.10
2019-01-17T12:55:01.895Z,10.10
2019-01-17T12:57:30.297Z,10.20
2019-01-17T13:00:08.383Z,10.40
2019-01-17T13:02:39.425Z,9.90
2019-01-17T13:05:10.383Z,9.70
2019-01-17T13:07:40.422Z,9.20
2019-01-17T13:10:11.528Z,9.40
2019-01-17T13:12:47.701Z,9.80
2019-01-17T13:15:20.484Z,10.00
2019-01-17T13:17:51.490Z,10.20
2019-01-17T13:20:23.250Z,10.30
2019-01-17T13:22:54.025Z,10.60
2019-01-17T13:25:25.910Z,10.60
2019-01-17T13:27:54.366Z,10.20
2019-01-17T13:30:24.038Z,10.10
2019-01-17T13:32:52.551Z,9.70
2019-01-17T13:35:25.625Z,9.20
2019-01-17T13:37:54.010Z,8.70
2019-01-17T13:40:23.231Z,8.60
2019-01-17T13:42:54.764Z,8.40
2019-01-17T13:45:23.225Z,8.30
2019-01-17T13:48:08.199Z,8.20
2019-01-17T13:50:30.531Z,8.10
2019-01-17T13:53:00.562Z,8.20
2019-01-17T13:55:28.932Z,8.40
2019-01-17T13:58:04.098Z,8.70
2019-01-17T14:00:35.192Z,8.60
2019-01-17T14:03:04.437Z,8.40
2019-01-17T14:05:40.241Z,8.40
2019-01-17T14:08:12.967Z,8.30
2019-01-17T14:10:44.149Z,8.20
2019-01-17T14:13:12.527Z,7.90
2019-01-17T14:15:42.460Z,7.70
2019-01-17T14:18:10.826Z,7.50
2019-01-17T14:20:47.957Z,7.30
2019-01-17T14:23:16.400Z,7.10
2019-01-17T14:25:44.782Z,7.00
2019-01-17T14:28:15.845Z,6.90
2019-01-17T14:30:44.236Z,6.90
2019-01-17T14:33:12.621Z,6.80
2019-01-17T14:35:40.997Z,6.80
2019-01-17T14:38:09.389Z,6.80
2019-01-17T14:40:39.404Z,6.80
2019-01-17T14:43:11.189Z,6.90
2019-01-17T14:45:42.270Z,6.90
2019-01-17T14:48:10.662Z,6.90
2019-01-17T14:50:47.920Z,6.90
2019-01-17T14:53:18.818Z,6.90
2019-01-17T14:55:52.808Z,6.80
2019-01-17T14:58:22.920Z,6.70
2019-01-17T15:00:54.274Z,6.50
2019-01-17T15:03:25.190Z,6.40
2019-01-17T15:05:56.477Z,6.50
2019-01-17T15:08:24.854Z,6.60
2019-01-17T15:10:54.162Z,6.70
2019-01-17T15:13:24.075Z,6.90
2019-01-17T15:15:54.097Z,6.80
2019-01-17T15:18:25.218Z,6.50
2019-01-17T15:20:59.217Z,6.10
2019-01-17T15:23:27.906Z,5.10
2019-01-17T15:25:59.145Z,3.90
2019-01-17T15:28:27.776Z,3.40
2019-01-17T15:30:56.169Z,3.20
2019-01-17T15:33:24.546Z,3.10
2019-01-17T15:35:54.578Z,2.90
2019-01-17T15:38:25.910Z,2.90
2019-01-17T15:40:55.958Z,2.80
2019-01-17T15:43:24.353Z,2.80
2019-01-17T15:45:52.724Z,2.60
2019-01-17T15:48:21.368Z,2.50
2019-01-17T15:50:49.770Z,2.50
2019-01-17T15:53:21.029Z,2.50
2019-01-17T15:55:49.434Z,2.50
2019-01-17T15:58:17.826Z,2.60
2019-01-17T16:00:46.465Z,2.70
2019-01-17T16:03:14.848Z,2.80
2019-01-17T16:05:45.118Z,2.90
2019-01-17T16:08:13.886Z,3.00
2019-01-17T16:10:42.261Z,3.00
2019-01-17T16:13:13.662Z,2.90
2019-01-17T16:15:42.223Z,3.00
2019-01-17T16:18:10.621Z,3.00
2019-01-17T16:20:39.305Z,3.00
2019-01-17T16:23:07.693Z,3.00
2019-01-17T16:25:36.149Z,3.00
2019-01-17T16:28:09.088Z,3.00
2019-01-17T16:30:37.833Z,3.00
2019-01-17T16:33:09.546Z,2.90
2019-01-17T16:35:43.920Z,2.80
2019-01-17T16:38:13.936Z,2.80
2019-01-17T16:40:43.085Z,2.70
2019-01-17T16:43:17.525Z,2.70
2019-01-17T16:45:47.597Z,2.60
2019-01-17T16:48:19.085Z,2.50
2019-01-17T16:50:50.409Z,2.50
2019-01-17T16:53:26.726Z,2.50
2019-01-17T16:55:53.535Z,2.50
2019-01-17T16:58:25.026Z,2.50
2019-01-17T17:00:55.045Z,2.60
2019-01-17T17:03:25.777Z,2.70
2019-01-17T17:05:54.252Z,2.80
2019-01-17T17:08:22.728Z,3.00
2019-01-17T17:10:52.056Z,3.10
2019-01-17T17:13:20.447Z,3.20
2019-01-17T17:15:48.861Z,3.20
2019-01-17T17:18:17.235Z,2.80
2019-01-17T17:20:45.664Z,2.40
2019-01-17T17:23:14.063Z,2.20
2019-01-17T17:25:42.457Z,2.10
2019-01-17T17:28:10.860Z,2.00
2019-01-17T17:30:39.261Z,1.90
2019-01-17T17:33:07.912Z,1.80
2019-01-17T17:35:39.025Z,1.80
2019-01-17T17:38:10.129Z,1.80
2019-01-17T17:40:40.026Z,1.80
2019-01-17T17:43:08.406Z,1.90
2019-01-17T17:45:37.060Z,2.00
2019-01-17T17:48:06.413Z,2.00
2019-01-17T17:50:37.604Z,2.00
2019-01-17T17:53:09.025Z,2.00
2019-01-17T17:55:37.637Z,2.00
2019-01-17T17:58:16.078Z,1.90
2019-01-17T18:00:52.104Z,1.90
2019-01-17T18:03:20.495Z,1.90
2019-01-17T18:05:55.122Z,1.90
2019-01-17T18:08:25.160Z,2.00
2019-01-17T18:10:59.170Z,1.90
2019-01-17T18:13:33.737Z,1.80
2019-01-17T18:16:02.179Z,1.80
2019-01-17T18:18:33.297Z,1.70
2019-01-17T18:21:07.394Z,1.60
2019-01-17T18:23:37.416Z,1.40
2019-01-17T18:26:07.444Z,1.30
2019-01-17T18:28:37.465Z,1.20
2019-01-17T18:31:11.466Z,1.10
2019-01-17T18:33:44.082Z,1.00
2019-01-17T18:36:14.140Z,0.80
2019-01-17T18:38:42.522Z,0.70
2019-01-17T18:41:10.916Z,0.60
2019-01-17T18:43:48.090Z,0.80
2019-01-17T18:46:16.560Z,1.00
2019-01-17T18:48:47.288Z,1.20
2019-01-17T18:51:21.364Z,1.40
2019-01-17T18:53:49.753Z,1.60
2019-01-17T18:56:18.120Z,1.80
2019-01-17T18:58:47.555Z,1.90
2019-01-17T19:01:15.944Z,2.00
2019-01-17T19:03:47.339Z,2.00
2019-01-17T19:06:15.717Z,2.00
2019-01-17T19:08:46.996Z,1.90
2019-01-17T19:11:17.812Z,1.70
2019-01-17T19:13:52.019Z,1.70
2019-01-17T19:16:23.373Z,1.60
2019-01-17T19:18:54.529Z,1.60
2019-01-17T19:21:25.693Z,1.50
2019-01-17T19:23:54.077Z,1.40
2019-01-17T19:26:25.474Z,1.40
2019-01-17T19:28:53.857Z,1.20
2019-01-17T19:31:23.890Z,1.10
2019-01-17T19:33:54.997Z,1.00
2019-01-17T19:36:26.050Z,0.90
2019-01-17T19:38:56.077Z,0.80
2019-01-17T19:41:24.476Z,0.80
2019-01-17T19:43:55.621Z,0.70
2019-01-17T19:46:28.662Z,0.70
2019-01-17T19:48:57.833Z,0.60
2019-01-17T19:51:27.248Z,0.60
2019-01-17T19:53:58.376Z,0.60
2019-01-17T19:56:28.882Z,0.60
2019-01-17T19:59:00.479Z,0.60
2019-01-17T20:01:28.858Z,0.60
2019-01-17T20:03:57.510Z,0.50
2019-01-17T20:06:27.778Z,0.40
2019-01-17T20:08:58.845Z,0.30
2019-01-17T20:11:27.304Z,0.30
2019-01-17T20:13:58.989Z,0.40
2019-01-17T20:16:31.470Z,0.50
2019-01-17T20:18:59.995Z,0.50
2019-01-17T20:21:31.457Z,0.70
2019-01-17T20:23:59.832Z,0.80
2019-01-17T20:26:33.620Z,0.70
2019-01-17T20:29:07.548Z,0.70
2019-01-17T20:31:35.933Z,0.50
2019-01-17T20:34:05.437Z,0.20
2019-01-17T20:36:36.941Z,-0.10
2019-01-17T20:39:08.580Z,-0.30
2019-01-17T20:41:36.990Z,-0.40
2019-01-17T20:44:05.445Z,-0.50
2019-01-17T20:46:33.904Z,-0.50
2019-01-17T20:49:02.302Z,-0.60
2019-01-17T20:51:30.704Z,-0.60
2019-01-17T20:53:59.081Z,-0.70
2019-01-17T20:56:32.121Z,-0.70
2019-01-17T20:59:03.212Z,-0.80
2019-01-17T21:01:36.613Z,-0.80
2019-01-17T21:04:06.429Z,-0.70
2019-01-17T21:06:37.549Z,-0.70
2019-01-17T21:09:10.380Z,-0.70
2019-01-17T21:11:41.311Z,-0.60
2019-01-17T21:14:16.465Z,-0.60
2019-01-17T21:16:45.024Z,-0.60
2019-01-17T21:19:13.424Z,-0.50
2019-01-17T21:21:42.139Z,-0.40
2019-01-17T21:24:19.096Z,-0.50
2019-01-17T21:26:50.139Z,-0.50
2019-01-17T21:29:24.534Z,-0.60
2019-01-17T21:31:55.612Z,-0.50
2019-01-17T21:34:26.645Z,-0.30
2019-01-17T21:36:57.986Z,-0.10
2019-01-17T21:39:34.972Z,0.10
2019-01-17T21:42:04.900Z,0.30
2019-01-17T21:44:33.299Z,0.60
2019-01-17T21:47:01.678Z,0.70
2019-01-17T21:49:30.188Z,0.80
2019-01-17T21:52:01.264Z,0.80
2019-01-17T21:54:29.805Z,0.70
2019-01-17T21:56:58.182Z,0.70
2019-01-17T21:59:26.587Z,0.70
2019-01-17T22:01:54.957Z,0.60
2019-01-17T22:04:27.632Z,0.50
2019-01-17T22:07:01.796Z,0.50
2019-01-17T22:09:31.817Z,0.50
2019-01-17T22:12:04.699Z,0.50
2019-01-17T22:14:33.113Z,0.50
2019-01-17T22:17:01.506Z,0.60
2019-01-17T22:19:30.152Z,0.80
2019-01-17T22:21:58.738Z,0.90
2019-01-17T22:24:29.799Z,1.00
2019-01-17T22:27:02.774Z,1.10
2019-01-17T22:29:32.794Z,1.10
2019-01-17T22:32:04.181Z,1.20
2019-01-17T22:34:38.281Z,1.20
2019-01-17T22:37:12.289Z,1.30
2019-01-17T22:39:41.018Z,1.20
2019-01-17T22:42:17.831Z,1.20
2019-01-17T22:44:46.384Z,1.20
2019-01-17T22:47:16.297Z,1.20
2019-01-17T22:49:44.690Z,1.10
2019-01-17T22:52:13.065Z,1.20
2019-01-17T22:54:41.458Z,1.20
2019-01-17T22:57:09.832Z,1.30
2019-01-17T22:59:41.639Z,1.40
2019-01-17T23:02:10.021Z,1.50
2019-01-17T23:04:38.404Z,1.60
2019-01-17T23:07:09.629Z,1.70
2019-01-17T23:09:50.101Z,1.80
2019-01-17T23:12:18.489Z,1.80
2019-01-17T23:14:46.873Z,1.80
2019-01-17T23:17:18.199Z,1.80
2019-01-17T23:19:46.829Z,1.80
2019-01-17T23:22:17.882Z,1.80
2019-01-17T23:24:47.065Z,1.90
2019-01-17T23:27:22.692Z,1.90
2019-01-17T23:29:51.069Z,1.90
2019-01-17T23:32:21.121Z,1.80
2019-01-17T23:34:51.390Z,1.80
2019-01-17T23:37:19.773Z,1.70
2019-01-17T23:39:48.164Z,1.80
2019-01-17T23:42:16.565Z,1.70
2019-01-17T23:44:45.153Z,1.70
2019-01-17T23:47:18.223Z,1.80
2019-01-17T23:50:00.313Z,1.70
2019-01-17T23:52:19.993Z,1.70
2019-01-17T23:54:48.395Z,1.80
2019-01-17T23:57:16.773Z,1.70
2019-01-17T23:59:53.432Z,1.80
